createdAt,value
2018-08-16T00:01:28.595Z,20.20
2018-08-16T00:03:55.952Z,20.10
2018-08-16T00:06:23.289Z,20.10
2018-08-16T00:08:50.648Z,20.10
2018-08-16T00:11:17.949Z,20.00
2018-08-16T00:13:45.224Z,20.00
2018-08-16T00:16:12.543Z,20.00
2018-08-16T00:18:39.887Z,20.00
2018-08-16T00:21:07.250Z,19.90
2018-08-16T00:23:34.594Z,19.90
2018-08-16T00:26:01.922Z,19.90
2018-08-16T00:28:29.215Z,19.90
2018-08-16T00:30:56.530Z,19.90
2018-08-16T00:33:23.847Z,19.80
2018-08-16T00:35:51.161Z,19.80
2018-08-16T00:38:18.477Z,19.80
2018-08-16T00:40:45.763Z,19.70
2018-08-16T00:43:13.093Z,19.80
2018-08-16T00:45:40.451Z,19.70
2018-08-16T00:48:07.747Z,19.70
2018-08-16T00:50:35.076Z,19.70
2018-08-16T00:53:02.385Z,19.70
2018-08-16T00:55:29.668Z,19.60
2018-08-16T00:57:57.024Z,19.60
2018-08-16T01:00:24.328Z,19.60
2018-08-16T01:02:51.636Z,19.60
2018-08-16T01:05:18.964Z,19.60
2018-08-16T01:07:46.291Z,19.60
2018-08-16T01:10:14.182Z,19.50
2018-08-16T01:12:42.295Z,19.50
2018-08-16T01:15:11.242Z,19.50
2018-08-16T01:17:38.822Z,19.50
2018-08-16T01:20:06.584Z,19.50
2018-08-16T01:22:33.886Z,19.50
2018-08-16T01:25:01.226Z,19.50
2018-08-16T01:27:28.520Z,19.50
2018-08-16T01:29:55.828Z,19.50
2018-08-16T01:32:23.134Z,19.50
2018-08-16T01:34:50.438Z,19.50
2018-08-16T01:37:17.794Z,19.50
2018-08-16T01:39:45.134Z,19.40
2018-08-16T01:42:12.451Z,19.40
2018-08-16T01:44:39.785Z,19.40
2018-08-16T01:47:07.288Z,19.40
2018-08-16T01:49:35.855Z,19.40
2018-08-16T01:52:03.234Z,19.30
2018-08-16T01:54:30.779Z,19.40
2018-08-16T01:56:58.851Z,19.30
2018-08-16T01:59:26.191Z,19.30
2018-08-16T02:01:53.678Z,19.30
2018-08-16T02:04:21.005Z,19.20
2018-08-16T02:06:49.382Z,19.20
2018-08-16T02:09:16.839Z,19.20
2018-08-16T02:11:44.171Z,19.10
2018-08-16T02:14:11.491Z,19.10
2018-08-16T02:16:39.226Z,19.10
2018-08-16T02:19:06.584Z,19.10
2018-08-16T02:21:34.231Z,19.00
2018-08-16T02:24:02.121Z,19.00
2018-08-16T02:26:29.451Z,19.00
2018-08-16T02:28:56.790Z,18.90
2018-08-16T02:31:24.304Z,18.90
2018-08-16T02:33:51.849Z,18.90
2018-08-16T02:36:20.435Z,18.80
2018-08-16T02:38:47.868Z,18.80
2018-08-16T02:41:15.399Z,18.80
2018-08-16T02:43:42.723Z,18.80
2018-08-16T02:46:10.091Z,18.80
2018-08-16T02:48:37.616Z,18.70
2018-08-16T02:51:04.951Z,18.70
2018-08-16T02:53:32.431Z,18.70
2018-08-16T02:55:59.748Z,18.70
2018-08-16T02:58:27.071Z,18.70
2018-08-16T03:00:54.398Z,18.70
2018-08-16T03:03:21.731Z,18.60
2018-08-16T03:05:49.069Z,18.60
2018-08-16T03:08:16.368Z,18.60
2018-08-16T03:10:43.675Z,18.60
2018-08-16T03:13:17.846Z,18.60
2018-08-16T03:15:45.200Z,18.50
2018-08-16T03:18:12.569Z,18.50
2018-08-16T03:20:39.904Z,18.50
2018-08-16T03:23:07.519Z,18.30
2018-08-16T03:25:34.975Z,18.50
2018-08-16T03:28:02.541Z,18.50
2018-08-16T03:30:30.092Z,18.40
2018-08-16T03:32:57.442Z,18.40
2018-08-16T03:35:24.797Z,18.50
2018-08-16T03:37:52.204Z,18.40
2018-08-16T03:40:26.187Z,18.40
2018-08-16T03:42:53.527Z,18.30
2018-08-16T03:45:20.923Z,18.30
2018-08-16T03:47:48.237Z,18.30
2018-08-16T03:50:15.592Z,18.30
2018-08-16T03:52:43.031Z,18.30
2018-08-16T03:55:10.351Z,18.30
2018-08-16T03:57:37.663Z,18.20
2018-08-16T04:00:05.616Z,18.20
2018-08-16T04:02:32.960Z,18.20
2018-08-16T04:05:00.307Z,18.20
2018-08-16T04:07:27.679Z,18.20
2018-08-16T04:09:54.996Z,18.10
2018-08-16T04:12:22.368Z,18.10
2018-08-16T04:14:49.711Z,18.10
2018-08-16T04:17:17.095Z,18.10
2018-08-16T04:19:44.486Z,18.10
2018-08-16T04:22:11.875Z,18.10
2018-08-16T04:24:39.192Z,18.10
2018-08-16T04:27:06.538Z,18.10
2018-08-16T04:29:33.863Z,18.10
2018-08-16T04:32:01.337Z,18.00
2018-08-16T04:34:28.675Z,18.10
2018-08-16T04:36:56.106Z,18.00
2018-08-16T04:39:23.457Z,18.00
2018-08-16T04:41:50.844Z,18.00
2018-08-16T04:44:18.129Z,18.00
2018-08-16T04:46:45.676Z,18.00
2018-08-16T04:49:12.995Z,18.00
2018-08-16T04:51:40.352Z,18.00
2018-08-16T04:54:07.732Z,18.00
2018-08-16T04:56:35.067Z,18.10
2018-08-16T04:59:02.459Z,18.00
2018-08-16T05:01:29.789Z,18.10
2018-08-16T05:03:57.204Z,18.10
2018-08-16T05:06:24.503Z,18.10
2018-08-16T05:08:52.050Z,18.10
2018-08-16T05:11:19.388Z,18.10
2018-08-16T05:13:46.689Z,18.10
2018-08-16T05:16:14.035Z,18.10
2018-08-16T05:18:41.396Z,18.20
2018-08-16T05:21:08.717Z,18.20
2018-08-16T05:23:36.025Z,18.20
2018-08-16T05:26:03.585Z,18.20
2018-08-16T05:28:30.896Z,18.30
2018-08-16T05:30:58.273Z,18.30
2018-08-16T05:33:25.631Z,18.40
2018-08-16T05:35:52.995Z,18.40
2018-08-16T05:38:20.356Z,18.50
2018-08-16T05:40:47.708Z,18.60
2018-08-16T05:43:15.188Z,18.60
2018-08-16T05:45:42.504Z,18.70
2018-08-16T05:48:09.858Z,18.70
2018-08-16T05:50:37.246Z,18.80
2018-08-16T05:53:04.696Z,18.80
2018-08-16T05:55:32.043Z,18.90
2018-08-16T05:57:59.401Z,19.00
2018-08-16T06:00:26.790Z,19.00
2018-08-16T06:02:54.156Z,19.10
2018-08-16T06:05:21.635Z,19.10
2018-08-16T06:07:49.001Z,19.20
2018-08-16T06:10:16.392Z,19.30
2018-08-16T06:12:43.779Z,19.30
2018-08-16T06:15:11.131Z,19.40
2018-08-16T06:17:38.519Z,19.50
2018-08-16T06:20:08.428Z,19.60
2018-08-16T06:22:35.817Z,19.70
2018-08-16T06:25:03.869Z,19.80
2018-08-16T06:27:31.212Z,20.00
2018-08-16T06:29:58.643Z,20.10
2018-08-16T06:32:26.099Z,20.20
2018-08-16T06:34:53.429Z,20.30
2018-08-16T06:37:20.779Z,20.40
2018-08-16T06:39:48.140Z,20.50
2018-08-16T06:42:15.585Z,20.50
2018-08-16T06:44:42.912Z,20.60
2018-08-16T06:47:14.567Z,20.70
2018-08-16T06:49:41.956Z,20.80
2018-08-16T06:52:09.303Z,20.90
2018-08-16T06:54:36.677Z,20.90
2018-08-16T06:57:04.039Z,21.00
2018-08-16T06:59:31.387Z,21.20
2018-08-16T07:01:58.760Z,21.30
2018-08-16T07:04:26.074Z,21.40
2018-08-16T07:06:53.488Z,21.50
2018-08-16T07:09:20.814Z,21.60
2018-08-16T07:11:48.197Z,21.70
2018-08-16T07:14:15.586Z,21.80
2018-08-16T07:16:42.971Z,21.90
2018-08-16T07:19:10.369Z,22.00
2018-08-16T07:21:37.844Z,22.20
2018-08-16T07:24:05.347Z,22.30
2018-08-16T07:26:32.675Z,22.40
2018-08-16T07:29:00.028Z,22.60
2018-08-16T07:31:27.388Z,22.70
2018-08-16T07:33:54.718Z,22.80
2018-08-16T07:36:22.133Z,23.00
2018-08-16T07:38:49.485Z,23.00
2018-08-16T07:41:16.948Z,23.10
2018-08-16T07:43:44.323Z,23.20
2018-08-16T07:46:12.088Z,23.30
2018-08-16T07:48:39.352Z,23.30
2018-08-16T07:51:06.804Z,23.40
2018-08-16T07:53:34.132Z,23.50
2018-08-16T07:56:01.633Z,23.60
2018-08-16T07:58:29.047Z,23.60
2018-08-16T08:00:56.418Z,23.70
2018-08-16T08:03:23.774Z,23.80
2018-08-16T08:05:51.211Z,23.90
2018-08-16T08:08:18.620Z,24.00
2018-08-16T08:10:45.976Z,24.00
2018-08-16T08:13:13.352Z,24.10
2018-08-16T08:15:40.723Z,24.20
2018-08-16T08:18:08.139Z,24.30
2018-08-16T08:20:35.558Z,24.30
2018-08-16T08:23:02.925Z,24.40
2018-08-16T08:25:30.303Z,24.50
2018-08-16T08:27:57.664Z,24.60
2018-08-16T08:30:25.011Z,24.70
2018-08-16T08:32:52.440Z,24.80
2018-08-16T08:35:19.848Z,24.90
2018-08-16T08:38:00.274Z,25.00
2018-08-16T08:40:27.627Z,25.10
2018-08-16T08:42:54.978Z,25.20
2018-08-16T08:45:22.308Z,25.30
2018-08-16T08:47:54.228Z,25.40
2018-08-16T08:50:21.837Z,25.50
2018-08-16T08:52:49.173Z,25.50
2018-08-16T08:55:28.551Z,25.60
2018-08-16T08:58:07.398Z,25.70
2018-08-16T09:00:34.991Z,25.80
2018-08-16T09:03:02.342Z,25.90
2018-08-16T09:05:29.675Z,26.00
2018-08-16T09:07:57.024Z,26.10
2018-08-16T09:11:03.635Z,26.20
2018-08-16T09:13:42.773Z,26.30
2018-08-16T09:16:16.386Z,26.40
2018-08-16T09:18:43.720Z,26.50
2018-08-16T09:21:11.663Z,26.60
2018-08-16T09:23:39.067Z,26.60
2018-08-16T09:26:12.169Z,26.70
2018-08-16T09:28:39.903Z,26.70
2018-08-16T09:31:19.221Z,26.70
2018-08-16T09:33:58.281Z,26.60
2018-08-16T09:36:25.822Z,26.60
2018-08-16T09:38:53.579Z,26.50
2018-08-16T09:41:20.934Z,26.50
2018-08-16T09:43:48.280Z,26.40
2018-08-16T09:46:58.578Z,26.40
2018-08-16T09:49:26.294Z,26.30
2018-08-16T09:51:53.897Z,26.30
2018-08-16T09:54:21.438Z,26.30
2018-08-16T09:56:49.091Z,26.30
2018-08-16T09:59:16.788Z,26.30
2018-08-16T10:01:44.324Z,26.30
2018-08-16T10:04:11.687Z,26.30
2018-08-16T10:06:40.151Z,26.30
2018-08-16T10:09:13.031Z,26.40
2018-08-16T10:11:40.427Z,26.40
2018-08-16T10:14:07.813Z,26.40
2018-08-16T10:16:35.607Z,26.40
2018-08-16T10:19:03.384Z,26.40
2018-08-16T10:21:30.667Z,26.40
2018-08-16T10:23:58.093Z,26.40
2018-08-16T10:26:25.643Z,26.50
2018-08-16T10:28:52.996Z,26.50
2018-08-16T10:31:20.353Z,26.60
2018-08-16T10:33:47.672Z,26.60
2018-08-16T10:36:15.048Z,26.70
2018-08-16T10:38:42.415Z,26.80
2018-08-16T10:41:09.724Z,26.80
2018-08-16T10:43:37.088Z,26.90
2018-08-16T10:46:04.625Z,27.00
2018-08-16T10:48:32.251Z,27.10
2018-08-16T10:50:59.948Z,27.10
2018-08-16T10:53:27.584Z,27.10
2018-08-16T10:55:54.948Z,27.10
2018-08-16T10:58:22.304Z,27.30
2018-08-16T11:00:49.645Z,27.30
2018-08-16T11:03:17.137Z,27.40
2018-08-16T11:05:44.472Z,27.50
2018-08-16T11:08:11.811Z,27.50
2018-08-16T11:10:39.168Z,27.60
2018-08-16T11:13:06.515Z,27.60
2018-08-16T11:15:33.861Z,27.70
2018-08-16T11:18:01.187Z,27.70
2018-08-16T11:20:28.535Z,27.80
2018-08-16T11:22:55.939Z,27.90
2018-08-16T11:25:23.294Z,28.00
2018-08-16T11:27:50.622Z,28.00
2018-08-16T11:30:18.107Z,28.10
2018-08-16T11:32:45.408Z,28.20
2018-08-16T11:35:12.831Z,28.30
2018-08-16T11:37:40.162Z,28.30
2018-08-16T11:40:07.943Z,28.40
2018-08-16T11:42:35.292Z,28.50
2018-08-16T11:45:02.702Z,28.50
2018-08-16T11:47:30.002Z,28.60
2018-08-16T11:49:57.297Z,28.60
2018-08-16T11:52:24.559Z,28.70
2018-08-16T11:54:51.922Z,28.70
2018-08-16T11:57:19.307Z,28.70
2018-08-16T11:59:46.649Z,28.80
2018-08-16T12:02:14.030Z,28.80
2018-08-16T12:04:41.379Z,28.80
2018-08-16T12:07:08.715Z,28.90
2018-08-16T12:09:36.283Z,28.90
2018-08-16T12:12:03.758Z,28.90
2018-08-16T12:14:31.060Z,29.00
2018-08-16T12:16:58.386Z,29.00
2018-08-16T12:19:25.706Z,29.10
2018-08-16T12:21:53.058Z,29.20
2018-08-16T12:24:20.365Z,29.20
2018-08-16T12:26:47.695Z,29.40
2018-08-16T12:29:15.046Z,29.40
2018-08-16T12:31:42.376Z,29.60
2018-08-16T12:34:09.704Z,29.70
2018-08-16T12:36:37.036Z,29.70
2018-08-16T12:39:05.395Z,29.80
2018-08-16T12:41:32.706Z,29.80
2018-08-16T12:44:00.008Z,29.80
2018-08-16T12:46:29.359Z,29.80
2018-08-16T12:48:56.675Z,29.80
2018-08-16T12:51:23.978Z,29.80
2018-08-16T12:53:51.527Z,29.80
2018-08-16T12:56:18.883Z,29.90
2018-08-16T12:58:46.218Z,29.90
2018-08-16T13:01:13.577Z,29.90
2018-08-16T13:03:40.939Z,29.90
2018-08-16T13:06:08.271Z,29.90
2018-08-16T13:08:35.628Z,29.90
2018-08-16T13:11:02.967Z,30.00
2018-08-16T13:13:30.319Z,30.00
2018-08-16T13:15:57.649Z,30.00
2018-08-16T13:18:24.973Z,30.00
2018-08-16T13:20:52.337Z,30.10
2018-08-16T13:23:19.868Z,30.00
2018-08-16T13:25:47.254Z,30.00
2018-08-16T13:28:14.796Z,30.00
2018-08-16T13:30:42.088Z,30.00
2018-08-16T13:33:09.810Z,30.00
2018-08-16T13:35:37.147Z,29.90
2018-08-16T13:38:04.932Z,30.00
2018-08-16T13:40:32.284Z,30.00
2018-08-16T13:42:59.626Z,30.00
2018-08-16T13:45:26.935Z,30.00
2018-08-16T13:47:54.274Z,30.10
2018-08-16T13:50:21.601Z,30.10
2018-08-16T13:52:48.931Z,30.20
2018-08-16T13:55:16.305Z,30.20
2018-08-16T13:57:43.691Z,30.30
2018-08-16T14:00:11.068Z,30.40
2018-08-16T14:02:38.781Z,30.40
2018-08-16T14:05:06.327Z,30.50
2018-08-16T14:07:33.627Z,30.50
2018-08-16T14:10:00.979Z,30.60
2018-08-16T14:12:28.295Z,30.60
2018-08-16T14:14:55.753Z,30.70
2018-08-16T14:17:23.051Z,30.70
2018-08-16T14:19:50.398Z,30.70
2018-08-16T14:22:17.812Z,30.70
2018-08-16T14:24:45.116Z,30.70
2018-08-16T14:27:12.423Z,30.70
2018-08-16T14:29:39.798Z,30.70
2018-08-16T14:32:07.146Z,30.70
2018-08-16T14:34:34.411Z,30.70
2018-08-16T14:37:02.163Z,30.70
2018-08-16T14:39:29.475Z,30.70
2018-08-16T14:41:56.831Z,30.70
2018-08-16T14:44:24.182Z,30.70
2018-08-16T14:46:51.514Z,30.70
2018-08-16T14:49:18.825Z,30.70
2018-08-16T14:51:46.191Z,30.60
2018-08-16T14:54:13.505Z,30.50
2018-08-16T14:56:40.890Z,30.50
2018-08-16T14:59:08.257Z,30.40
2018-08-16T15:01:35.540Z,30.50
2018-08-16T15:04:02.850Z,30.50
2018-08-16T15:06:30.220Z,30.60
2018-08-16T15:11:24.895Z,30.70
2018-08-16T15:13:52.231Z,30.70
2018-08-16T15:16:19.825Z,30.70
2018-08-16T15:18:47.669Z,30.70
2018-08-16T15:21:15.020Z,30.70
2018-08-16T15:23:48.028Z,30.70
2018-08-16T15:26:24.018Z,30.70
2018-08-16T15:28:58.465Z,30.70
2018-08-16T15:31:35.631Z,30.60
2018-08-16T15:34:17.140Z,30.50
2018-08-16T15:36:52.260Z,30.40
2018-08-16T15:39:19.775Z,30.40
2018-08-16T15:41:47.107Z,30.40
2018-08-16T15:44:14.470Z,30.40
2018-08-16T15:46:41.795Z,30.50
2018-08-16T15:49:09.155Z,30.50
2018-08-16T15:51:36.431Z,30.60
2018-08-16T15:54:04.423Z,30.50
2018-08-16T15:56:31.762Z,30.60
2018-08-16T15:58:59.159Z,30.60
2018-08-16T16:01:26.496Z,30.60
2018-08-16T16:03:53.872Z,30.50
2018-08-16T16:06:21.389Z,30.50
2018-08-16T16:08:48.661Z,30.50
2018-08-16T16:11:16.077Z,30.60
2018-08-16T16:13:43.467Z,30.60
2018-08-16T16:16:10.803Z,30.50
2018-08-16T16:18:38.156Z,30.50
2018-08-16T16:21:05.633Z,30.50
2018-08-16T16:23:33.007Z,30.40
2018-08-16T16:26:00.637Z,30.30
2018-08-16T16:28:28.027Z,30.20
2018-08-16T16:30:55.519Z,30.10
2018-08-16T16:33:22.840Z,30.00
2018-08-16T16:35:50.217Z,30.00
2018-08-16T16:38:18.007Z,29.90
2018-08-16T16:40:45.402Z,29.80
2018-08-16T16:43:12.854Z,29.80
2018-08-16T16:45:40.292Z,29.80
2018-08-16T16:48:07.661Z,29.70
2018-08-16T16:50:34.985Z,29.60
2018-08-16T16:53:02.521Z,29.60
2018-08-16T16:55:29.781Z,29.50
2018-08-16T16:57:58.197Z,29.50
2018-08-16T17:00:25.545Z,29.40
2018-08-16T17:02:52.919Z,29.40
2018-08-16T17:05:20.348Z,29.30
2018-08-16T17:07:47.695Z,29.40
2018-08-16T17:10:15.183Z,29.30
2018-08-16T17:12:43.137Z,29.40
2018-08-16T17:15:10.558Z,29.40
2018-08-16T17:17:38.824Z,29.40
2018-08-16T17:20:06.737Z,29.40
2018-08-16T17:22:34.407Z,29.40
2018-08-16T17:25:01.777Z,29.30
2018-08-16T17:27:29.289Z,29.20
2018-08-16T17:29:56.619Z,29.10
2018-08-16T17:32:23.935Z,29.00
2018-08-16T17:34:51.287Z,28.90
2018-08-16T17:37:18.659Z,28.90
2018-08-16T17:39:45.992Z,28.80
2018-08-16T17:42:13.327Z,28.70
2018-08-16T17:44:41.299Z,28.70
2018-08-16T17:47:08.805Z,28.50
2018-08-16T17:49:36.115Z,28.40
2018-08-16T17:52:03.756Z,28.30
2018-08-16T17:54:31.031Z,28.20
2018-08-16T17:56:58.554Z,28.10
2018-08-16T17:59:25.946Z,28.00
2018-08-16T18:01:53.354Z,27.90
2018-08-16T18:04:20.817Z,27.90
2018-08-16T18:06:48.315Z,27.80
2018-08-16T18:09:15.672Z,27.70
2018-08-16T18:11:43.076Z,27.70
2018-08-16T18:14:10.581Z,27.60
2018-08-16T18:16:38.006Z,27.60
2018-08-16T18:19:05.501Z,27.60
2018-08-16T18:21:32.915Z,27.50
2018-08-16T18:24:00.325Z,27.50
2018-08-16T18:26:27.969Z,27.40
2018-08-16T18:28:55.548Z,27.30
2018-08-16T18:31:22.962Z,27.30
2018-08-16T18:33:50.303Z,27.20
2018-08-16T18:36:17.671Z,27.20
2018-08-16T18:38:45.036Z,27.10
2018-08-16T18:41:12.457Z,27.00
2018-08-16T18:43:39.853Z,26.90
2018-08-16T18:46:07.197Z,26.80
2018-08-16T18:48:34.524Z,26.80
2018-08-16T18:51:01.872Z,26.70
2018-08-16T18:53:29.267Z,26.50
2018-08-16T18:55:56.567Z,26.50
2018-08-16T18:58:24.149Z,26.40
2018-08-16T19:00:51.443Z,26.30
2018-08-16T19:03:18.857Z,26.30
2018-08-16T19:05:46.306Z,26.20
2018-08-16T19:08:13.601Z,26.10
2018-08-16T19:10:41.003Z,26.00
2018-08-16T19:13:08.434Z,25.90
2018-08-16T19:15:35.771Z,25.80
2018-08-16T19:18:03.216Z,25.70
2018-08-16T19:20:30.595Z,25.60
2018-08-16T19:22:58.006Z,25.60
2018-08-16T19:25:25.367Z,25.50
2018-08-16T19:27:52.960Z,25.40
2018-08-16T19:30:20.306Z,25.30
2018-08-16T19:32:47.715Z,25.20
2018-08-16T19:35:15.090Z,25.10
2018-08-16T19:37:42.518Z,25.00
2018-08-16T19:40:09.899Z,25.00
2018-08-16T19:42:37.226Z,24.90
2018-08-16T19:45:04.768Z,24.80
2018-08-16T19:47:35.383Z,24.80
2018-08-16T19:50:21.410Z,24.60
2018-08-16T19:52:55.930Z,24.60
2018-08-16T19:55:24.236Z,24.50
2018-08-16T19:57:54.543Z,24.50
2018-08-16T20:00:42.197Z,24.40
2018-08-16T20:03:09.557Z,24.40
2018-08-16T20:05:37.101Z,24.30
2018-08-16T20:08:04.726Z,24.20
2018-08-16T20:10:32.307Z,24.20
2018-08-16T20:12:59.651Z,24.10
2018-08-16T20:15:27.165Z,24.10
2018-08-16T20:17:54.556Z,24.00
2018-08-16T20:20:21.971Z,24.00
2018-08-16T20:25:23.439Z,23.80
2018-08-16T20:27:50.778Z,23.70
2018-08-16T20:30:18.210Z,23.60
2018-08-16T20:32:45.526Z,23.40
2018-08-16T20:35:13.073Z,23.40
2018-08-16T20:37:40.859Z,23.30
2018-08-16T20:40:08.232Z,23.20
2018-08-16T20:42:35.551Z,23.10
2018-08-16T20:45:03.120Z,23.00
2018-08-16T20:47:30.481Z,23.00
2018-08-16T20:49:57.828Z,22.90
2018-08-16T20:52:25.172Z,22.90
2018-08-16T20:54:52.509Z,22.80
2018-08-16T20:57:20.017Z,22.70
2018-08-16T20:59:47.437Z,22.70
2018-08-16T21:02:14.872Z,22.60
2018-08-16T21:04:42.343Z,22.60
2018-08-16T21:07:09.719Z,22.60
2018-08-16T21:09:37.031Z,22.60
2018-08-16T21:12:04.360Z,22.50
2018-08-16T21:14:31.667Z,22.50
2018-08-16T21:16:58.999Z,22.50
2018-08-16T21:19:26.799Z,22.40
2018-08-16T21:21:54.161Z,22.40
2018-08-16T21:24:21.475Z,22.40
2018-08-16T21:26:48.842Z,22.30
2018-08-16T21:29:16.170Z,22.30
2018-08-16T21:31:43.533Z,22.30
2018-08-16T21:34:10.853Z,22.20
2018-08-16T21:36:38.268Z,22.20
2018-08-16T21:39:07.897Z,22.20
2018-08-16T21:41:35.228Z,22.20
2018-08-16T21:44:02.564Z,22.10
2018-08-16T21:46:29.871Z,22.00
2018-08-16T21:48:57.292Z,22.00
2018-08-16T21:51:24.851Z,21.90
2018-08-16T21:53:52.163Z,21.90
2018-08-16T21:56:19.644Z,21.90
2018-08-16T21:58:47.072Z,21.90
2018-08-16T22:01:14.512Z,21.80
2018-08-16T22:03:41.888Z,21.80
2018-08-16T22:06:10.319Z,21.80
2018-08-16T22:08:41.602Z,21.70
2018-08-16T22:11:08.993Z,21.70
2018-08-16T22:13:36.568Z,21.70
2018-08-16T22:16:04.134Z,21.60
2018-08-16T22:18:31.493Z,21.60
2018-08-16T22:20:58.800Z,21.60
2018-08-16T22:23:26.149Z,21.50
2018-08-16T22:25:53.517Z,21.50
2018-08-16T22:28:20.851Z,21.40
2018-08-16T22:30:48.167Z,21.40
2018-08-16T22:33:15.499Z,21.30
2018-08-16T22:35:42.966Z,21.30
2018-08-16T22:38:10.304Z,21.20
2018-08-16T22:40:37.660Z,21.20
2018-08-16T22:43:05.186Z,21.10
2018-08-16T22:45:32.518Z,21.10
2018-08-16T22:47:59.918Z,21.00
2018-08-16T22:50:27.211Z,21.10
2018-08-16T22:52:54.523Z,21.00
2018-08-16T22:55:21.842Z,20.90
2018-08-16T22:57:49.217Z,20.90
2018-08-16T23:00:16.563Z,20.90
2018-08-16T23:02:44.024Z,20.80
2018-08-16T23:05:11.419Z,20.80
2018-08-16T23:07:38.731Z,20.80
2018-08-16T23:10:06.236Z,20.80
2018-08-16T23:12:33.533Z,20.70
2018-08-16T23:15:00.947Z,20.70
2018-08-16T23:17:28.248Z,20.70
2018-08-16T23:19:55.549Z,20.60
2018-08-16T23:22:22.873Z,20.60
2018-08-16T23:24:50.202Z,20.60
2018-08-16T23:27:17.623Z,20.50
2018-08-16T23:29:44.934Z,20.50
2018-08-16T23:32:12.232Z,20.50
2018-08-16T23:34:39.592Z,20.50
2018-08-16T23:37:07.214Z,20.50
2018-08-16T23:39:34.583Z,20.50
2018-08-16T23:42:01.958Z,20.50
2018-08-16T23:44:29.268Z,20.50
2018-08-16T23:46:56.624Z,20.60
2018-08-16T23:49:23.957Z,20.60
2018-08-16T23:51:51.283Z,20.60
2018-08-16T23:54:18.587Z,20.60
2018-08-16T23:56:45.956Z,20.60
2018-08-16T23:59:13.288Z,20.60
